sensor_id;sensor_type;location;lat;lon;timestamp;P1;durP1;ratioP1;P2;durP2;ratioP2
52188;SDS011;38162;45.926;13.608;2024-01-30T00:01:51;30.03;;;18.50;;
52188;SDS011;38162;45.926;13.608;2024-01-30T00:04:17;31.83;;;19.27;;
52188;SDS011;38162;45.926;13.608;2024-01-30T00:06:43;30.90;;;18.77;;
52188;SDS011;38162;45.926;13.608;2024-01-30T00:09:10;32.20;;;18.80;;
52188;SDS011;38162;45.926;13.608;2024-01-30T00:11:38;33.00;;;18.97;;
52188;SDS011;38162;45.926;13.608;2024-01-30T00:14:04;28.53;;;18.53;;
52188;SDS011;38162;45.926;13.608;2024-01-30T00:16:30;33.87;;;19.07;;
52188;SDS011;38162;45.926;13.608;2024-01-30T00:18:56;37.40;;;21.27;;
52188;SDS011;38162;45.926;13.608;2024-01-30T00:21:22;37.27;;;22.67;;
52188;SDS011;38162;45.926;13.608;2024-01-30T00:23:48;44.83;;;24.77;;
52188;SDS011;38162;45.926;13.608;2024-01-30T00:26:14;38.47;;;22.33;;
52188;SDS011;38162;45.926;13.608;2024-01-30T00:28:40;43.43;;;24.07;;
52188;SDS011;38162;45.926;13.608;2024-01-30T00:31:07;43.67;;;25.00;;
52188;SDS011;38162;45.926;13.608;2024-01-30T00:33:37;48.87;;;25.17;;
52188;SDS011;38162;45.926;13.608;2024-01-30T00:36:08;49.17;;;26.43;;
52188;SDS011;38162;45.926;13.608;2024-01-30T00:38:34;49.13;;;27.60;;
52188;SDS011;38162;45.926;13.608;2024-01-30T00:41:01;47.17;;;25.80;;
52188;SDS011;38162;45.926;13.608;2024-01-30T00:43:27;47.30;;;26.67;;
52188;SDS011;38162;45.926;13.608;2024-01-30T00:45:53;46.70;;;26.67;;
52188;SDS011;38162;45.926;13.608;2024-01-30T00:48:19;52.43;;;27.53;;
52188;SDS011;38162;45.926;13.608;2024-01-30T00:50:45;46.47;;;26.60;;
52188;SDS011;38162;45.926;13.608;2024-01-30T00:53:11;46.23;;;24.70;;
52188;SDS011;38162;45.926;13.608;2024-01-30T00:55:37;40.63;;;22.47;;
52188;SDS011;38162;45.926;13.608;2024-01-30T00:58:03;43.97;;;23.83;;
52188;SDS011;38162;45.926;13.608;2024-01-30T01:00:29;41.10;;;22.63;;
52188;SDS011;38162;45.926;13.608;2024-01-30T01:02:56;42.00;;;23.53;;
52188;SDS011;38162;45.926;13.608;2024-01-30T01:05:22;43.17;;;22.63;;
52188;SDS011;38162;45.926;13.608;2024-01-30T01:07:47;41.93;;;22.47;;
52188;SDS011;38162;45.926;13.608;2024-01-30T01:10:13;41.87;;;21.80;;
52188;SDS011;38162;45.926;13.608;2024-01-30T01:12:41;36.57;;;21.60;;
52188;SDS011;38162;45.926;13.608;2024-01-30T01:15:07;38.23;;;21.00;;
52188;SDS011;38162;45.926;13.608;2024-01-30T01:17:36;36.00;;;21.37;;
52188;SDS011;38162;45.926;13.608;2024-01-30T01:20:05;45.47;;;21.50;;
52188;SDS011;38162;45.926;13.608;2024-01-30T01:22:32;34.37;;;20.90;;
52188;SDS011;38162;45.926;13.608;2024-01-30T01:24:58;35.57;;;21.03;;
52188;SDS011;38162;45.926;13.608;2024-01-30T01:27:24;37.10;;;20.47;;
52188;SDS011;38162;45.926;13.608;2024-01-30T01:29:51;36.73;;;21.10;;
52188;SDS011;38162;45.926;13.608;2024-01-30T01:32:17;39.93;;;21.43;;
52188;SDS011;38162;45.926;13.608;2024-01-30T01:34:43;38.27;;;21.30;;
52188;SDS011;38162;45.926;13.608;2024-01-30T01:37:09;38.50;;;20.90;;
52188;SDS011;38162;45.926;13.608;2024-01-30T01:39:34;37.23;;;20.00;;
52188;SDS011;38162;45.926;13.608;2024-01-30T01:42:00;34.33;;;20.40;;
52188;SDS011;38162;45.926;13.608;2024-01-30T01:44:26;38.50;;;20.53;;
52188;SDS011;38162;45.926;13.608;2024-01-30T01:46:52;34.63;;;19.87;;
52188;SDS011;38162;45.926;13.608;2024-01-30T01:49:19;32.67;;;19.10;;
52188;SDS011;38162;45.926;13.608;2024-01-30T01:51:46;34.00;;;20.03;;
52188;SDS011;38162;45.926;13.608;2024-01-30T01:54:14;38.27;;;21.13;;
52188;SDS011;38162;45.926;13.608;2024-01-30T01:56:41;40.50;;;20.00;;
52188;SDS011;38162;45.926;13.608;2024-01-30T01:59:08;35.60;;;19.23;;
52188;SDS011;38162;45.926;13.608;2024-01-30T02:01:36;34.00;;;18.43;;
52188;SDS011;38162;45.926;13.608;2024-01-30T02:04:02;35.83;;;19.80;;
52188;SDS011;38162;45.926;13.608;2024-01-30T02:06:28;40.63;;;20.63;;
52188;SDS011;38162;45.926;13.608;2024-01-30T02:08:54;34.27;;;19.17;;
52188;SDS011;38162;45.926;13.608;2024-01-30T02:11:20;32.30;;;18.90;;
52188;SDS011;38162;45.926;13.608;2024-01-30T02:13:48;35.63;;;19.10;;
52188;SDS011;38162;45.926;13.608;2024-01-30T02:16:14;36.70;;;18.47;;
52188;SDS011;38162;45.926;13.608;2024-01-30T02:18:40;30.93;;;17.47;;
52188;SDS011;38162;45.926;13.608;2024-01-30T02:21:10;29.87;;;18.27;;
52188;SDS011;38162;45.926;13.608;2024-01-30T02:23:37;36.30;;;17.77;;
52188;SDS011;38162;45.926;13.608;2024-01-30T02:26:04;31.73;;;18.03;;
52188;SDS011;38162;45.926;13.608;2024-01-30T02:28:30;35.97;;;18.97;;
52188;SDS011;38162;45.926;13.608;2024-01-30T02:30:56;32.87;;;17.90;;
52188;SDS011;38162;45.926;13.608;2024-01-30T02:33:21;33.13;;;18.47;;
52188;SDS011;38162;45.926;13.608;2024-01-30T02:35:47;34.43;;;17.90;;
52188;SDS011;38162;45.926;13.608;2024-01-30T02:38:13;31.90;;;17.63;;
52188;SDS011;38162;45.926;13.608;2024-01-30T02:40:40;25.83;;;15.40;;
52188;SDS011;38162;45.926;13.608;2024-01-30T02:43:06;24.50;;;15.47;;
52188;SDS011;38162;45.926;13.608;2024-01-30T02:45:31;35.53;;;17.77;;
52188;SDS011;38162;45.926;13.608;2024-01-30T02:47:57;32.73;;;17.60;;
52188;SDS011;38162;45.926;13.608;2024-01-30T02:50:23;31.47;;;16.57;;
52188;SDS011;38162;45.926;13.608;2024-01-30T02:52:49;26.80;;;15.90;;
52188;SDS011;38162;45.926;13.608;2024-01-30T02:55:14;24.57;;;14.37;;
52188;SDS011;38162;45.926;13.608;2024-01-30T02:57:43;27.50;;;15.50;;
52188;SDS011;38162;45.926;13.608;2024-01-30T03:00:09;28.90;;;14.77;;
52188;SDS011;38162;45.926;13.608;2024-01-30T03:02:35;27.53;;;14.90;;
52188;SDS011;38162;45.926;13.608;2024-01-30T03:05:01;29.07;;;15.40;;
52188;SDS011;38162;45.926;13.608;2024-01-30T03:07:29;27.40;;;15.57;;
52188;SDS011;38162;45.926;13.608;2024-01-30T03:09:54;27.10;;;14.77;;
52188;SDS011;38162;45.926;13.608;2024-01-30T03:12:20;22.17;;;13.63;;
52188;SDS011;38162;45.926;13.608;2024-01-30T03:14:46;27.00;;;14.10;;
52188;SDS011;38162;45.926;13.608;2024-01-30T03:17:12;25.53;;;14.50;;
52188;SDS011;38162;45.926;13.608;2024-01-30T03:19:38;25.43;;;14.30;;
52188;SDS011;38162;45.926;13.608;2024-01-30T03:22:04;26.90;;;14.80;;
52188;SDS011;38162;45.926;13.608;2024-01-30T03:24:30;26.40;;;14.03;;
52188;SDS011;38162;45.926;13.608;2024-01-30T03:26:56;26.70;;;14.43;;
52188;SDS011;38162;45.926;13.608;2024-01-30T03:29:21;29.33;;;15.37;;
52188;SDS011;38162;45.926;13.608;2024-01-30T03:31:47;25.00;;;14.40;;
52188;SDS011;38162;45.926;13.608;2024-01-30T03:34:13;24.40;;;13.90;;
52188;SDS011;38162;45.926;13.608;2024-01-30T03:36:38;25.77;;;14.30;;
52188;SDS011;38162;45.926;13.608;2024-01-30T03:39:04;22.03;;;12.83;;
52188;SDS011;38162;45.926;13.608;2024-01-30T03:41:31;20.40;;;12.37;;
52188;SDS011;38162;45.926;13.608;2024-01-30T03:43:57;23.10;;;13.77;;
52188;SDS011;38162;45.926;13.608;2024-01-30T03:46:22;22.23;;;12.07;;
52188;SDS011;38162;45.926;13.608;2024-01-30T03:48:48;22.07;;;13.00;;
52188;SDS011;38162;45.926;13.608;2024-01-30T03:51:14;22.37;;;12.53;;
52188;SDS011;38162;45.926;13.608;2024-01-30T03:53:41;26.70;;;13.77;;
52188;SDS011;38162;45.926;13.608;2024-01-30T03:56:07;20.53;;;11.93;;
52188;SDS011;38162;45.926;13.608;2024-01-30T03:58:33;21.37;;;12.93;;
52188;SDS011;38162;45.926;13.608;2024-01-30T04:00:59;24.17;;;13.10;;
52188;SDS011;38162;45.926;13.608;2024-01-30T04:03:25;25.17;;;13.63;;
52188;SDS011;38162;45.926;13.608;2024-01-30T04:05:51;26.83;;;14.40;;
52188;SDS011;38162;45.926;13.608;2024-01-30T04:08:18;24.47;;;13.03;;
52188;SDS011;38162;45.926;13.608;2024-01-30T04:10:43;24.30;;;12.97;;
52188;SDS011;38162;45.926;13.608;2024-01-30T04:13:09;24.90;;;13.43;;
52188;SDS011;38162;45.926;13.608;2024-01-30T04:15:35;22.70;;;13.10;;
52188;SDS011;38162;45.926;13.608;2024-01-30T04:18:01;25.10;;;13.07;;
52188;SDS011;38162;45.926;13.608;2024-01-30T04:20:26;21.90;;;11.83;;
52188;SDS011;38162;45.926;13.608;2024-01-30T04:22:52;22.07;;;12.63;;
52188;SDS011;38162;45.926;13.608;2024-01-30T04:25:18;24.17;;;12.10;;
52188;SDS011;38162;45.926;13.608;2024-01-30T04:27:44;19.30;;;11.83;;
52188;SDS011;38162;45.926;13.608;2024-01-30T04:30:10;19.77;;;11.63;;
52188;SDS011;38162;45.926;13.608;2024-01-30T04:32:36;22.67;;;11.00;;
52188;SDS011;38162;45.926;13.608;2024-01-30T04:35:02;24.33;;;10.23;;
52188;SDS011;38162;45.926;13.608;2024-01-30T04:37:28;18.90;;;10.60;;
52188;SDS011;38162;45.926;13.608;2024-01-30T04:39:54;17.73;;;10.03;;
52188;SDS011;38162;45.926;13.608;2024-01-30T04:42:19;21.10;;;10.53;;
52188;SDS011;38162;45.926;13.608;2024-01-30T04:44:45;21.77;;;11.47;;
52188;SDS011;38162;45.926;13.608;2024-01-30T04:47:11;19.67;;;10.80;;
52188;SDS011;38162;45.926;13.608;2024-01-30T04:49:39;22.73;;;12.20;;
52188;SDS011;38162;45.926;13.608;2024-01-30T04:52:06;20.10;;;10.93;;
52188;SDS011;38162;45.926;13.608;2024-01-30T04:54:32;20.43;;;11.40;;
52188;SDS011;38162;45.926;13.608;2024-01-30T04:56:58;24.53;;;11.07;;
52188;SDS011;38162;45.926;13.608;2024-01-30T04:59:24;20.40;;;11.70;;
52188;SDS011;38162;45.926;13.608;2024-01-30T05:01:50;21.53;;;11.37;;
52188;SDS011;38162;45.926;13.608;2024-01-30T05:04:15;21.50;;;11.00;;
52188;SDS011;38162;45.926;13.608;2024-01-30T05:06:41;16.73;;;9.93;;
52188;SDS011;38162;45.926;13.608;2024-01-30T05:09:07;20.13;;;10.37;;
52188;SDS011;38162;45.926;13.608;2024-01-30T05:11:37;21.23;;;10.20;;
52188;SDS011;38162;45.926;13.608;2024-01-30T05:14:04;19.00;;;10.63;;
52188;SDS011;38162;45.926;13.608;2024-01-30T05:16:31;16.80;;;10.50;;
52188;SDS011;38162;45.926;13.608;2024-01-30T05:18:56;20.43;;;10.67;;
52188;SDS011;38162;45.926;13.608;2024-01-30T05:21:22;23.93;;;12.07;;
52188;SDS011;38162;45.926;13.608;2024-01-30T05:23:48;21.47;;;10.60;;
52188;SDS011;38162;45.926;13.608;2024-01-30T05:26:14;19.13;;;10.73;;
52188;SDS011;38162;45.926;13.608;2024-01-30T05:28:40;21.33;;;11.07;;
52188;SDS011;38162;45.926;13.608;2024-01-30T05:31:06;17.93;;;10.37;;
52188;SDS011;38162;45.926;13.608;2024-01-30T05:33:31;24.70;;;11.23;;
52188;SDS011;38162;45.926;13.608;2024-01-30T05:35:57;24.27;;;10.73;;
52188;SDS011;38162;45.926;13.608;2024-01-30T05:38:23;21.83;;;11.43;;
52188;SDS011;38162;45.926;13.608;2024-01-30T05:40:49;22.70;;;11.70;;
52188;SDS011;38162;45.926;13.608;2024-01-30T05:43:14;25.03;;;11.80;;
52188;SDS011;38162;45.926;13.608;2024-01-30T05:45:40;24.07;;;12.03;;
52188;SDS011;38162;45.926;13.608;2024-01-30T05:48:06;26.07;;;12.80;;
52188;SDS011;38162;45.926;13.608;2024-01-30T05:50:32;21.50;;;10.57;;
52188;SDS011;38162;45.926;13.608;2024-01-30T05:52:58;22.43;;;11.90;;
52188;SDS011;38162;45.926;13.608;2024-01-30T05:55:23;24.83;;;12.13;;
52188;SDS011;38162;45.926;13.608;2024-01-30T05:57:49;20.93;;;11.73;;
52188;SDS011;38162;45.926;13.608;2024-01-30T06:00:17;28.30;;;12.20;;
52188;SDS011;38162;45.926;13.608;2024-01-30T06:02:43;30.03;;;12.47;;
52188;SDS011;38162;45.926;13.608;2024-01-30T06:05:08;27.63;;;12.50;;
52188;SDS011;38162;45.926;13.608;2024-01-30T06:07:34;26.60;;;12.63;;
52188;SDS011;38162;45.926;13.608;2024-01-30T06:10:00;21.37;;;10.93;;
52188;SDS011;38162;45.926;13.608;2024-01-30T06:12:27;24.47;;;11.43;;
52188;SDS011;38162;45.926;13.608;2024-01-30T06:14:53;29.53;;;14.90;;
52188;SDS011;38162;45.926;13.608;2024-01-30T06:17:22;49.90;;;21.50;;
52188;SDS011;38162;45.926;13.608;2024-01-30T06:19:48;45.20;;;16.93;;
52188;SDS011;38162;45.926;13.608;2024-01-30T06:22:13;36.57;;;17.53;;
52188;SDS011;38162;45.926;13.608;2024-01-30T06:24:39;38.97;;;18.27;;
52188;SDS011;38162;45.926;13.608;2024-01-30T06:27:05;40.47;;;18.47;;
52188;SDS011;38162;45.926;13.608;2024-01-30T06:29:31;28.80;;;14.40;;
52188;SDS011;38162;45.926;13.608;2024-01-30T06:31:57;26.13;;;14.37;;
52188;SDS011;38162;45.926;13.608;2024-01-30T06:34:22;24.13;;;13.20;;
52188;SDS011;38162;45.926;13.608;2024-01-30T06:36:48;24.67;;;11.17;;
52188;SDS011;38162;45.926;13.608;2024-01-30T06:39:14;21.57;;;10.50;;
52188;SDS011;38162;45.926;13.608;2024-01-30T06:41:40;21.17;;;12.60;;
52188;SDS011;38162;45.926;13.608;2024-01-30T06:44:05;32.33;;;11.00;;
52188;SDS011;38162;45.926;13.608;2024-01-30T06:46:33;31.73;;;14.30;;
52188;SDS011;38162;45.926;13.608;2024-01-30T06:48:59;25.97;;;12.80;;
52188;SDS011;38162;45.926;13.608;2024-01-30T06:51:25;26.00;;;12.80;;
52188;SDS011;38162;45.926;13.608;2024-01-30T06:53:50;28.03;;;12.30;;
52188;SDS011;38162;45.926;13.608;2024-01-30T06:56:16;24.77;;;12.40;;
52188;SDS011;38162;45.926;13.608;2024-01-30T06:58:46;19.27;;;10.70;;
52188;SDS011;38162;45.926;13.608;2024-01-30T07:01:13;22.20;;;10.97;;
52188;SDS011;38162;45.926;13.608;2024-01-30T07:03:39;21.20;;;10.67;;
52188;SDS011;38162;45.926;13.608;2024-01-30T07:06:05;25.23;;;10.97;;
52188;SDS011;38162;45.926;13.608;2024-01-30T07:08:31;28.87;;;12.13;;
52188;SDS011;38162;45.926;13.608;2024-01-30T07:10:56;22.27;;;12.53;;
52188;SDS011;38162;45.926;13.608;2024-01-30T07:13:22;23.30;;;12.50;;
52188;SDS011;38162;45.926;13.608;2024-01-30T07:15:48;24.03;;;10.60;;
52188;SDS011;38162;45.926;13.608;2024-01-30T07:18:13;23.40;;;11.30;;
52188;SDS011;38162;45.926;13.608;2024-01-30T07:20:40;21.87;;;11.10;;
52188;SDS011;38162;45.926;13.608;2024-01-30T07:23:12;27.63;;;11.83;;
52188;SDS011;38162;45.926;13.608;2024-01-30T07:25:40;24.20;;;10.77;;
52188;SDS011;38162;45.926;13.608;2024-01-30T07:28:07;26.07;;;10.83;;
52188;SDS011;38162;45.926;13.608;2024-01-30T07:30:35;27.47;;;11.00;;
52188;SDS011;38162;45.926;13.608;2024-01-30T07:33:00;31.33;;;10.80;;
52188;SDS011;38162;45.926;13.608;2024-01-30T07:35:26;21.50;;;12.03;;
52188;SDS011;38162;45.926;13.608;2024-01-30T07:37:52;21.57;;;11.47;;
52188;SDS011;38162;45.926;13.608;2024-01-30T07:40:17;25.33;;;12.23;;
52188;SDS011;38162;45.926;13.608;2024-01-30T07:42:44;28.17;;;12.23;;
52188;SDS011;38162;45.926;13.608;2024-01-30T07:45:09;22.80;;;11.57;;
52188;SDS011;38162;45.926;13.608;2024-01-30T07:47:35;29.63;;;12.50;;
52188;SDS011;38162;45.926;13.608;2024-01-30T07:50:01;25.17;;;12.27;;
52188;SDS011;38162;45.926;13.608;2024-01-30T07:52:27;22.43;;;12.30;;
52188;SDS011;38162;45.926;13.608;2024-01-30T07:54:53;38.73;;;13.13;;
52188;SDS011;38162;45.926;13.608;2024-01-30T07:57:18;36.13;;;14.67;;
52188;SDS011;38162;45.926;13.608;2024-01-30T07:59:44;27.93;;;13.37;;
52188;SDS011;38162;45.926;13.608;2024-01-30T08:02:13;37.00;;;15.13;;
52188;SDS011;38162;45.926;13.608;2024-01-30T08:04:39;27.97;;;14.20;;
52188;SDS011;38162;45.926;13.608;2024-01-30T08:07:05;32.73;;;15.23;;
52188;SDS011;38162;45.926;13.608;2024-01-30T08:09:31;28.93;;;15.07;;
52188;SDS011;38162;45.926;13.608;2024-01-30T08:11:56;31.60;;;14.70;;
52188;SDS011;38162;45.926;13.608;2024-01-30T08:14:22;27.83;;;13.87;;
52188;SDS011;38162;45.926;13.608;2024-01-30T08:16:48;31.70;;;14.03;;
52188;SDS011;38162;45.926;13.608;2024-01-30T08:19:14;25.17;;;12.30;;
52188;SDS011;38162;45.926;13.608;2024-01-30T08:21:40;27.10;;;12.77;;
52188;SDS011;38162;45.926;13.608;2024-01-30T08:24:06;29.07;;;14.03;;
52188;SDS011;38162;45.926;13.608;2024-01-30T08:26:32;21.43;;;12.07;;
52188;SDS011;38162;45.926;13.608;2024-01-30T08:28:58;28.83;;;11.67;;
52188;SDS011;38162;45.926;13.608;2024-01-30T08:31:24;22.67;;;11.13;;
52188;SDS011;38162;45.926;13.608;2024-01-30T08:33:50;24.90;;;11.73;;
52188;SDS011;38162;45.926;13.608;2024-01-30T08:36:16;20.93;;;11.00;;
52188;SDS011;38162;45.926;13.608;2024-01-30T08:38:42;24.30;;;11.47;;
52188;SDS011;38162;45.926;13.608;2024-01-30T08:41:08;22.93;;;11.03;;
52188;SDS011;38162;45.926;13.608;2024-01-30T08:43:34;28.37;;;10.97;;
52188;SDS011;38162;45.926;13.608;2024-01-30T08:46:01;24.00;;;12.17;;
52188;SDS011;38162;45.926;13.608;2024-01-30T08:48:27;28.30;;;12.30;;
52188;SDS011;38162;45.926;13.608;2024-01-30T08:50:53;22.90;;;12.27;;
52188;SDS011;38162;45.926;13.608;2024-01-30T08:53:19;23.23;;;12.13;;
52188;SDS011;38162;45.926;13.608;2024-01-30T08:55:45;25.50;;;12.27;;
52188;SDS011;38162;45.926;13.608;2024-01-30T08:58:10;23.30;;;10.77;;
52188;SDS011;38162;45.926;13.608;2024-01-30T09:00:36;24.27;;;11.53;;
52188;SDS011;38162;45.926;13.608;2024-01-30T09:03:05;19.00;;;10.07;;
52188;SDS011;38162;45.926;13.608;2024-01-30T09:05:31;19.03;;;9.57;;
52188;SDS011;38162;45.926;13.608;2024-01-30T09:07:57;18.87;;;10.03;;
52188;SDS011;38162;45.926;13.608;2024-01-30T09:10:22;20.93;;;9.30;;
52188;SDS011;38162;45.926;13.608;2024-01-30T09:12:48;19.80;;;8.53;;
52188;SDS011;38162;45.926;13.608;2024-01-30T09:15:14;15.47;;;8.90;;
52188;SDS011;38162;45.926;13.608;2024-01-30T09:17:40;14.70;;;8.17;;
52188;SDS011;38162;45.926;13.608;2024-01-30T09:20:06;16.40;;;7.83;;
52188;SDS011;38162;45.926;13.608;2024-01-30T09:22:32;19.73;;;7.10;;
52188;SDS011;38162;45.926;13.608;2024-01-30T09:24:58;17.73;;;7.90;;
52188;SDS011;38162;45.926;13.608;2024-01-30T09:27:24;13.03;;;6.87;;
52188;SDS011;38162;45.926;13.608;2024-01-30T09:29:49;10.97;;;6.43;;
52188;SDS011;38162;45.926;13.608;2024-01-30T09:32:15;12.27;;;6.40;;
52188;SDS011;38162;45.926;13.608;2024-01-30T09:34:42;14.17;;;6.63;;
52188;SDS011;38162;45.926;13.608;2024-01-30T09:37:08;12.10;;;6.10;;
52188;SDS011;38162;45.926;13.608;2024-01-30T09:39:34;13.67;;;6.83;;
52188;SDS011;38162;45.926;13.608;2024-01-30T09:42:11;17.13;;;7.40;;
52188;SDS011;38162;45.926;13.608;2024-01-30T09:44:48;13.27;;;7.17;;
52188;SDS011;38162;45.926;13.608;2024-01-30T09:47:17;17.10;;;7.43;;
52188;SDS011;38162;45.926;13.608;2024-01-30T09:49:43;16.20;;;7.60;;
52188;SDS011;38162;45.926;13.608;2024-01-30T09:52:09;16.97;;;8.27;;
52188;SDS011;38162;45.926;13.608;2024-01-30T09:54:36;21.10;;;8.03;;
52188;SDS011;38162;45.926;13.608;2024-01-30T09:57:04;17.77;;;8.87;;
52188;SDS011;38162;45.926;13.608;2024-01-30T09:59:30;12.63;;;8.23;;
52188;SDS011;38162;45.926;13.608;2024-01-30T10:01:56;20.37;;;7.90;;
52188;SDS011;38162;45.926;13.608;2024-01-30T10:04:22;15.77;;;7.50;;
52188;SDS011;38162;45.926;13.608;2024-01-30T10:06:48;11.73;;;7.10;;
52188;SDS011;38162;45.926;13.608;2024-01-30T10:09:15;15.07;;;6.53;;
52188;SDS011;38162;45.926;13.608;2024-01-30T10:11:41;11.17;;;5.00;;
52188;SDS011;38162;45.926;13.608;2024-01-30T10:14:07;16.43;;;4.97;;
52188;SDS011;38162;45.926;13.608;2024-01-30T10:16:34;10.93;;;5.30;;
52188;SDS011;38162;45.926;13.608;2024-01-30T10:19:00;12.23;;;4.80;;
52188;SDS011;38162;45.926;13.608;2024-01-30T10:21:26;11.47;;;4.97;;
52188;SDS011;38162;45.926;13.608;2024-01-30T10:23:52;11.43;;;4.50;;
52188;SDS011;38162;45.926;13.608;2024-01-30T10:26:18;9.57;;;4.67;;
52188;SDS011;38162;45.926;13.608;2024-01-30T10:28:44;10.53;;;3.73;;
52188;SDS011;38162;45.926;13.608;2024-01-30T10:31:09;8.03;;;3.43;;
52188;SDS011;38162;45.926;13.608;2024-01-30T10:33:35;9.63;;;4.47;;
52188;SDS011;38162;45.926;13.608;2024-01-30T10:36:02;12.10;;;3.80;;
52188;SDS011;38162;45.926;13.608;2024-01-30T10:38:31;10.03;;;4.57;;
52188;SDS011;38162;45.926;13.608;2024-01-30T10:40:59;11.43;;;4.23;;
52188;SDS011;38162;45.926;13.608;2024-01-30T10:46:19;8.37;;;3.43;;
52188;SDS011;38162;45.926;13.608;2024-01-30T10:48:55;8.40;;;3.80;;
52188;SDS011;38162;45.926;13.608;2024-01-30T10:51:24;6.77;;;3.80;;
52188;SDS011;38162;45.926;13.608;2024-01-30T10:53:52;8.20;;;3.43;;
52188;SDS011;38162;45.926;13.608;2024-01-30T10:56:21;7.43;;;3.57;;
52188;SDS011;38162;45.926;13.608;2024-01-30T10:58:51;10.80;;;3.53;;
52188;SDS011;38162;45.926;13.608;2024-01-30T11:01:21;6.67;;;3.60;;
52188;SDS011;38162;45.926;13.608;2024-01-30T11:03:54;5.67;;;3.10;;
52188;SDS011;38162;45.926;13.608;2024-01-30T11:06:22;6.77;;;3.60;;
52188;SDS011;38162;45.926;13.608;2024-01-30T11:09:04;9.23;;;4.03;;
52188;SDS011;38162;45.926;13.608;2024-01-30T11:11:50;10.03;;;3.87;;
52188;SDS011;38162;45.926;13.608;2024-01-30T11:14:22;14.07;;;4.57;;
52188;SDS011;38162;45.926;13.608;2024-01-30T11:19:15;15.53;;;4.57;;
52188;SDS011;38162;45.926;13.608;2024-01-30T11:21:50;18.20;;;5.30;;
52188;SDS011;38162;45.926;13.608;2024-01-30T11:24:19;16.90;;;4.77;;
52188;SDS011;38162;45.926;13.608;2024-01-30T11:26:47;19.70;;;4.63;;
52188;SDS011;38162;45.926;13.608;2024-01-30T11:29:14;19.70;;;4.83;;
52188;SDS011;38162;45.926;13.608;2024-01-30T11:31:50;13.10;;;4.37;;
52188;SDS011;38162;45.926;13.608;2024-01-30T11:34:18;14.90;;;4.37;;
52188;SDS011;38162;45.926;13.608;2024-01-30T11:36:45;11.30;;;4.30;;
52188;SDS011;38162;45.926;13.608;2024-01-30T11:39:20;13.00;;;4.43;;
52188;SDS011;38162;45.926;13.608;2024-01-30T11:41:47;11.20;;;4.00;;
52188;SDS011;38162;45.926;13.608;2024-01-30T11:44:16;20.70;;;3.90;;
52188;SDS011;38162;45.926;13.608;2024-01-30T11:46:41;9.20;;;3.27;;
52188;SDS011;38162;45.926;13.608;2024-01-30T11:49:07;13.47;;;3.67;;
52188;SDS011;38162;45.926;13.608;2024-01-30T11:51:33;9.80;;;3.43;;
52188;SDS011;38162;45.926;13.608;2024-01-30T11:53:59;9.17;;;3.83;;
52188;SDS011;38162;45.926;13.608;2024-01-30T11:56:25;14.13;;;4.77;;
52188;SDS011;38162;45.926;13.608;2024-01-30T11:58:52;15.90;;;4.07;;
52188;SDS011;38162;45.926;13.608;2024-01-30T12:01:17;14.13;;;3.53;;
52188;SDS011;38162;45.926;13.608;2024-01-30T12:03:49;11.90;;;3.80;;
52188;SDS011;38162;45.926;13.608;2024-01-30T12:06:15;11.67;;;4.43;;
52188;SDS011;38162;45.926;13.608;2024-01-30T12:08:41;9.68;;;4.28;;
52188;SDS011;38162;45.926;13.608;2024-01-30T12:11:07;15.60;;;4.37;;
52188;SDS011;38162;45.926;13.608;2024-01-30T12:13:33;10.87;;;4.20;;
52188;SDS011;38162;45.926;13.608;2024-01-30T12:16:00;14.03;;;4.63;;
52188;SDS011;38162;45.926;13.608;2024-01-30T12:18:26;18.10;;;3.87;;
52188;SDS011;38162;45.926;13.608;2024-01-30T12:21:01;10.37;;;3.80;;
52188;SDS011;38162;45.926;13.608;2024-01-30T12:23:27;9.27;;;3.60;;
52188;SDS011;38162;45.926;13.608;2024-01-30T12:25:53;8.43;;;3.40;;
52188;SDS011;38162;45.926;13.608;2024-01-30T12:28:19;10.18;;;3.50;;
52188;SDS011;38162;45.926;13.608;2024-01-30T12:30:45;10.35;;;3.13;;
52188;SDS011;38162;45.926;13.608;2024-01-30T12:33:17;6.28;;;2.60;;
52188;SDS011;38162;45.926;13.608;2024-01-30T12:35:46;6.40;;;3.03;;
52188;SDS011;38162;45.926;13.608;2024-01-30T12:38:13;6.15;;;2.80;;
52188;SDS011;38162;45.926;13.608;2024-01-30T12:40:39;5.40;;;2.83;;
52188;SDS011;38162;45.926;13.608;2024-01-30T12:43:05;7.30;;;3.28;;
52188;SDS011;38162;45.926;13.608;2024-01-30T12:45:31;4.78;;;2.97;;
52188;SDS011;38162;45.926;13.608;2024-01-30T12:47:57;6.57;;;3.33;;
52188;SDS011;38162;45.926;13.608;2024-01-30T12:50:23;5.78;;;3.05;;
52188;SDS011;38162;45.926;13.608;2024-01-30T12:52:49;6.57;;;2.90;;
52188;SDS011;38162;45.926;13.608;2024-01-30T12:55:15;9.13;;;4.55;;
52188;SDS011;38162;45.926;13.608;2024-01-30T12:57:40;5.95;;;3.47;;
52188;SDS011;38162;45.926;13.608;2024-01-30T13:00:07;5.90;;;3.20;;
52188;SDS011;38162;45.926;13.608;2024-01-30T13:02:36;4.72;;;2.55;;
52188;SDS011;38162;45.926;13.608;2024-01-30T13:05:05;5.13;;;3.20;;
52188;SDS011;38162;45.926;13.608;2024-01-30T13:07:32;6.40;;;3.28;;
52188;SDS011;38162;45.926;13.608;2024-01-30T13:09:59;8.55;;;3.55;;
52188;SDS011;38162;45.926;13.608;2024-01-30T13:12:28;7.40;;;3.33;;
52188;SDS011;38162;45.926;13.608;2024-01-30T13:14:54;6.95;;;3.13;;
52188;SDS011;38162;45.926;13.608;2024-01-30T13:17:20;8.63;;;3.88;;
52188;SDS011;38162;45.926;13.608;2024-01-30T13:19:45;4.85;;;3.00;;
52188;SDS011;38162;45.926;13.608;2024-01-30T13:22:11;6.38;;;3.40;;
52188;SDS011;38162;45.926;13.608;2024-01-30T13:24:37;8.27;;;4.50;;
52188;SDS011;38162;45.926;13.608;2024-01-30T13:27:03;12.40;;;3.70;;
52188;SDS011;38162;45.926;13.608;2024-01-30T13:29:31;8.32;;;3.72;;
52188;SDS011;38162;45.926;13.608;2024-01-30T13:31:56;10.10;;;4.57;;
52188;SDS011;38162;45.926;13.608;2024-01-30T13:34:22;11.07;;;4.80;;
52188;SDS011;38162;45.926;13.608;2024-01-30T13:36:48;8.48;;;3.63;;
52188;SDS011;38162;45.926;13.608;2024-01-30T13:39:14;9.38;;;4.57;;
52188;SDS011;38162;45.926;13.608;2024-01-30T13:41:42;6.97;;;4.32;;
52188;SDS011;38162;45.926;13.608;2024-01-30T13:44:08;10.07;;;3.95;;
52188;SDS011;38162;45.926;13.608;2024-01-30T13:46:34;15.27;;;4.22;;
52188;SDS011;38162;45.926;13.608;2024-01-30T13:49:00;8.18;;;4.40;;
52188;SDS011;38162;45.926;13.608;2024-01-30T13:51:26;9.18;;;4.30;;
52188;SDS011;38162;45.926;13.608;2024-01-30T13:53:53;11.18;;;4.65;;
52188;SDS011;38162;45.926;13.608;2024-01-30T13:56:19;11.32;;;4.72;;
52188;SDS011;38162;45.926;13.608;2024-01-30T13:58:47;11.38;;;4.70;;
52188;SDS011;38162;45.926;13.608;2024-01-30T14:01:14;9.93;;;4.55;;
52188;SDS011;38162;45.926;13.608;2024-01-30T14:03:39;9.95;;;5.78;;
52188;SDS011;38162;45.926;13.608;2024-01-30T14:06:05;9.68;;;4.80;;
52188;SDS011;38162;45.926;13.608;2024-01-30T14:08:31;8.43;;;5.28;;
52188;SDS011;38162;45.926;13.608;2024-01-30T14:10:57;8.73;;;4.97;;
52188;SDS011;38162;45.926;13.608;2024-01-30T14:13:23;11.05;;;4.65;;
52188;SDS011;38162;45.926;13.608;2024-01-30T14:15:50;9.52;;;4.60;;
52188;SDS011;38162;45.926;13.608;2024-01-30T14:18:17;7.93;;;4.75;;